Time;durP1;ratioP1;P1;durP2;ratioP2;P2;SDS_P1;SDS_P2;PMS_P1;PMS_P2;Temp;Humidity;BMP_temperature;BMP_pressure;BME280_temperature;BME280_humidity;BME280_pressure;Samples;Min_cycle;Max_cycle;Signal;HPM_P1;HPM_P2
2023/05/25 04:41:36;;;;;;;1999.90;999.90;;;;;;;;;;5046926;28;20385;-74
2023/05/25 04:44:03;;;;;;;1999.90;999.90;;;;;;;;;;5045826;28;20036;-73
2023/05/25 04:46:30;;;;;;;1999.90;999.90;;;;;;;;;;5046499;28;20384;-68
2023/05/25 04:48:56;;;;;;;1999.90;999.90;;;;;;;;;;5046510;28;20117;-71
2023/05/25 04:51:22;;;;;;;1999.90;999.90;;;;;;;;;;5046717;28;20601;-68
2023/05/25 04:53:50;;;;;;;1999.90;999.90;;;;;;;;;;5045766;28;20554;-71
2023/05/25 04:56:16;;;;;;;1999.90;999.90;;;;;;;;;;5047166;28;20033;-71
2023/05/25 04:58:43;;;;;;;1999.90;999.90;;;;;;;;;;5046246;28;20104;-72
2023/05/25 05:01:09;;;;;;;1999.90;999.90;;;;;;;;;;5047398;28;20048;-69
2023/05/25 05:03:35;;;;;;;1999.90;999.90;;;;;;;;;;5046960;28;20096;-71
2023/05/25 05:06:01;;;;;;;1999.90;999.90;;;;;;;;;;5047695;28;20033;-73
2023/05/25 05:08:27;;;;;;;1999.90;999.90;;;;;;;;;;5047527;28;20017;-71
2023/05/25 05:10:53;;;;;;;1999.90;999.90;;;;;;;;;;5047140;28;20116;-69
2023/05/25 05:13:19;;;;;;;1999.90;999.90;;;;;;;;;;5047314;28;20049;-72
2023/05/25 05:15:45;;;;;;;1999.90;999.90;;;;;;;;;;5047381;28;20022;-72
2023/05/25 05:18:12;;;;;;;1999.90;999.90;;;;;;;;;;5047420;28;20022;-71
2023/05/25 05:20:38;;;;;;;1999.90;999.90;;;;;;;;;;5047498;28;20024;-71
2023/05/25 05:23:05;;;;;;;1999.90;999.90;;;;;;;;;;5047420;28;20062;-72
2023/05/25 05:25:31;;;;;;;1999.90;999.90;;;;;;;;;;5047460;28;20045;-71
2023/05/25 05:27:57;;;;;;;1999.90;999.90;;;;;;;;;;5047249;28;20044;-73
2023/05/25 05:30:23;;;;;;;1999.90;999.90;;;;;;;;;;5047303;28;20037;-72
2023/05/25 05:32:49;;;;;;;1999.90;999.90;;;;;;;;;;5047278;28;20143;-70
2023/05/25 05:35:15;;;;;;;1999.90;999.90;;;;;;;;;;5030458;28;20034;-72
2023/05/25 05:37:42;;;;;;;1999.90;999.90;;;;;;;;;;5027422;28;20029;-69
2023/05/25 05:40:09;;;;;;;1999.90;999.90;;;;;;;;;;5027118;28;20123;-71
2023/05/25 05:42:35;;;;;;;1999.90;999.90;;;;;;;;;;5013872;28;20492;-72
2023/05/25 05:45:01;;;;;;;1999.90;999.90;;;;;;;;;;5013968;28;20100;-72
2023/05/25 05:47:27;;;;;;;1999.90;999.90;;;;;;;;;;5013834;28;20045;-71
2023/05/25 05:49:53;;;;;;;1999.90;999.90;;;;;;;;;;5013776;28;20034;-71
2023/05/25 05:52:19;;;;;;;1999.90;999.90;;;;;;;;;;5014076;28;20034;-72
2023/05/25 05:54:46;;;;;;;1999.90;999.90;;;;;;;;;;5013986;28;20107;-73
2023/05/25 05:57:12;;;;;;;1999.90;999.90;;;;;;;;;;5013506;28;20030;-74
2023/05/25 05:59:38;;;;;;;1999.90;999.90;;;;;;;;;;5013868;28;20088;-67
2023/05/25 06:02:06;;;;;;;1999.90;999.90;;;;;;;;;;5013588;28;20025;-73
2023/05/25 06:04:32;;;;;;;1999.90;999.90;;;;;;;;;;5013384;28;20056;-75
2023/05/25 06:06:58;;;;;;;1999.90;999.90;;;;;;;;;;5012321;28;20044;-73
2023/05/25 06:09:27;;;;;;;1999.90;999.90;;;;;;;;;;5012887;28;20108;-67
2023/05/25 06:11:53;;;;;;;1999.90;999.90;;;;;;;;;;5013338;28;20041;-67
2023/05/25 06:14:19;;;;;;;1999.90;999.90;;;;;;;;;;5012903;28;20033;-66
2023/05/25 06:16:45;;;;;;;1999.90;999.90;;;;;;;;;;5012242;28;20064;-66
2023/05/25 06:19:13;;;;;;;1999.90;999.90;;;;;;;;;;5012853;28;20084;-68
2023/05/25 06:21:39;;;;;;;1999.90;999.90;;;;;;;;;;5013247;28;20407;-69
2023/05/25 06:24:05;;;;;;;1999.90;999.90;;;;;;;;;;5013201;28;20481;-68
2023/05/25 06:26:31;;;;;;;1999.90;999.90;;;;;;;;;;5013034;28;20053;-66
2023/05/25 06:28:57;;;;;;;1999.90;999.90;;;;;;;;;;5012942;28;20037;-64
2023/05/25 06:31:23;;;;;;;1999.90;999.90;;;;;;;;;;5011766;28;20026;-66
2023/05/25 06:33:50;;;;;;;1999.90;999.90;;;;;;;;;;5011964;28;20026;-66
2023/05/25 06:36:16;;;;;;;1999.90;999.90;;;;;;;;;;5013148;28;20105;-68
2023/05/25 06:38:42;;;;;;;1999.90;999.90;;;;;;;;;;5013107;28;20156;-65
2023/05/25 06:41:11;;;;;;;1999.90;999.90;;;;;;;;;;5012516;28;20113;-66
2023/05/25 06:43:37;;;;;;;1999.90;999.90;;;;;;;;;;5012936;28;20025;-65
2023/05/25 06:46:03;;;;;;;1999.90;999.90;;;;;;;;;;5012776;28;20033;-65
2023/05/25 06:48:29;;;;;;;1999.90;999.90;;;;;;;;;;5012411;28;20041;-65
2023/05/25 06:50:55;;;;;;;1999.90;999.90;;;;;;;;;;5012513;28;20037;-66
2023/05/25 06:53:21;;;;;;;1999.90;999.90;;;;;;;;;;5011413;28;20030;-65
2023/05/25 06:55:48;;;;;;;1999.90;999.90;;;;;;;;;;5012431;28;20156;-65
2023/05/25 06:58:14;;;;;;;1999.90;999.90;;;;;;;;;;5012475;28;20042;-66
2023/05/25 07:00:40;;;;;;;1999.90;999.90;;;;;;;;;;5012354;28;20037;-64
2023/05/25 07:03:06;;;;;;;1999.90;999.90;;;;;;;;;;5012547;28;20022;-65
2023/05/25 07:05:32;;;;;;;1999.90;999.90;;;;;;;;;;5012414;28;20026;-65
2023/05/25 07:07:58;;;;;;;1999.90;999.90;;;;;;;;;;5012245;28;20390;-65
2023/05/25 07:10:24;;;;;;;1999.90;999.90;;;;;;;;;;5012417;28;20042;-65
2023/05/25 07:12:51;;;;;;;1999.90;999.90;;;;;;;;;;5012053;28;20482;-65
2023/05/25 07:15:17;;;;;;;1999.90;999.90;;;;;;;;;;5011793;28;20033;-65
2023/05/25 07:17:44;;;;;;;1999.90;999.90;;;;;;;;;;5011989;28;20030;-66
2023/05/25 07:20:11;;;;;;;1999.90;999.90;;;;;;;;;;5012082;28;20036;-65
2023/05/25 07:22:37;;;;;;;1999.90;999.90;;;;;;;;;;5012097;28;20520;-65
2023/05/25 07:25:03;;;;;;;1999.90;999.90;;;;;;;;;;5012297;28;20516;-65
2023/05/25 07:27:30;;;;;;;1999.90;999.90;;;;;;;;;;5011974;28;20101;-65
2023/05/25 07:29:56;;;;;;;1999.90;999.90;;;;;;;;;;5011721;28;20046;-65
2023/05/25 07:32:22;;;;;;;1999.90;999.90;;;;;;;;;;5011873;28;20041;-66
2023/05/25 07:34:48;;;;;;;1999.90;999.90;;;;;;;;;;5011583;28;20490;-65
2023/05/25 07:37:14;;;;;;;1999.90;999.90;;;;;;;;;;5012029;28;20030;-64
2023/05/25 07:39:40;;;;;;;1999.90;999.90;;;;;;;;;;5011207;28;20050;-66
2023/05/25 07:42:06;;;;;;;1999.90;999.90;;;;;;;;;;5010456;28;20042;-65
2023/05/25 07:44:32;;;;;;;1999.90;999.90;;;;;;;;;;5010063;28;20042;-65
2023/05/25 07:46:58;;;;;;;1999.90;999.90;;;;;;;;;;5010900;28;20466;-65
2023/05/25 07:49:24;;;;;;;1999.90;999.90;;;;;;;;;;5010895;28;20030;-65
2023/05/25 07:51:50;;;;;;;1999.90;999.90;;;;;;;;;;5011091;28;20033;-64
2023/05/25 07:54:16;;;;;;;1999.90;999.90;;;;;;;;;;5011237;28;20087;-64
2023/05/25 07:56:42;;;;;;;1999.90;999.90;;;;;;;;;;5011050;28;20037;-64
2023/05/25 07:59:09;;;;;;;1999.90;999.90;;;;;;;;;;5011289;28;20022;-65
2023/05/25 08:01:35;;;;;;;1999.90;999.90;;;;;;;;;;5011380;28;20053;-64
2023/05/25 08:04:01;;;;;;;1999.90;999.90;;;;;;;;;;5010675;28;20057;-65
2023/05/25 08:06:27;;;;;;;1999.90;999.90;;;;;;;;;;5011133;28;20100;-65
2023/05/25 08:08:53;;;;;;;1999.90;999.90;;;;;;;;;;5010801;28;20490;-65
2023/05/25 08:11:23;;;;;;;1999.90;999.90;;;;;;;;;;5010363;28;20124;-64
2023/05/25 08:13:50;;;;;;;1999.90;999.90;;;;;;;;;;5010356;28;20021;-64
2023/05/25 08:16:16;;;;;;;1999.90;999.90;;;;;;;;;;5010669;28;20088;-65
2023/05/25 08:18:45;;;;;;;1999.90;999.90;;;;;;;;;;5009342;28;20073;-64
2023/05/25 08:21:11;;;;;;;1999.90;999.90;;;;;;;;;;5010676;28;20059;-64
2023/05/25 08:23:41;;;;;;;1999.90;999.90;;;;;;;;;;5010963;28;20022;-64
2023/05/25 08:26:10;;;;;;;1999.90;999.90;;;;;;;;;;5011049;28;20018;-65
2023/05/25 08:28:36;;;;;;;1999.90;999.90;;;;;;;;;;5010998;28;20022;-65
2023/05/25 08:31:03;;;;;;;1999.90;999.90;;;;;;;;;;5010916;28;20084;-65
2023/05/25 08:33:30;;;;;;;1999.90;999.90;;;;;;;;;;5010890;28;20030;-64
2023/05/25 08:35:56;;;;;;;1999.90;999.90;;;;;;;;;;5010560;28;20535;-64
2023/05/25 08:38:24;;;;;;;1999.90;999.90;;;;;;;;;;5010931;28;20393;-65
2023/05/25 08:41:00;;;;;;;1999.90;999.90;;;;;;;;;;5010396;28;20053;-64
2023/05/25 08:43:26;;;;;;;1999.90;999.90;;;;;;;;;;5010531;28;20053;-65
2023/05/25 08:45:52;;;;;;;1999.90;999.90;;;;;;;;;;5010789;28;20482;-64
2023/05/25 08:48:19;;;;;;;1999.90;999.90;;;;;;;;;;5010784;28;20129;-65
2023/05/25 08:50:46;;;;;;;1999.90;999.90;;;;;;;;;;5010395;28;20066;-69
2023/05/25 08:53:13;;;;;;;1999.90;999.90;;;;;;;;;;5010466;28;20025;-65
2023/05/25 08:55:41;;;;;;;1999.90;999.90;;;;;;;;;;5010127;28;20036;-64
2023/05/25 08:58:15;;;;;;;1999.90;999.90;;;;;;;;;;5010419;28;20363;-65
2023/05/25 09:00:43;;;;;;;1999.90;999.90;;;;;;;;;;5010613;28;20544;-63
2023/05/25 09:03:11;;;;;;;1999.90;999.90;;;;;;;;;;5010406;28;20079;-64
2023/05/25 09:05:37;;;;;;;1999.90;999.90;;;;;;;;;;5010483;28;20026;-66
2023/05/25 09:08:05;;;;;;;1999.90;999.90;;;;;;;;;;5010653;28;20018;-63
2023/05/25 09:10:32;;;;;;;1999.90;999.90;;;;;;;;;;5010096;28;20037;-66
2023/05/25 09:12:59;;;;;;;1999.90;999.90;;;;;;;;;;5010415;28;20032;-66
2023/05/25 09:15:25;;;;;;;1999.90;999.90;;;;;;;;;;5010231;28;20389;-63
2023/05/25 09:17:51;;;;;;;1999.90;999.90;;;;;;;;;;5013936;28;20022;-64
2023/05/25 09:20:17;;;;;;;1999.90;999.90;;;;;;;;;;5014182;28;20026;-64
2023/05/25 09:22:44;;;;;;;1999.90;999.90;;;;;;;;;;5014045;28;20026;-64
2023/05/25 09:25:10;;;;;;;1999.90;999.90;;;;;;;;;;5013624;28;20022;-66
2023/05/25 09:27:36;;;;;;;1999.90;999.90;;;;;;;;;;5013765;28;20088;-65
2023/05/25 09:30:03;;;;;;;1999.90;999.90;;;;;;;;;;5014399;28;20029;-66
2023/05/25 09:32:30;;;;;;;1999.90;999.90;;;;;;;;;;5014228;28;20030;-66
2023/05/25 09:35:06;;;;;;;1999.90;999.90;;;;;;;;;;5013514;28;20065;-63
2023/05/25 09:37:32;;;;;;;1999.90;999.90;;;;;;;;;;5013743;28;20034;-66
2023/05/25 09:39:58;;;;;;;1999.90;999.90;;;;;;;;;;5013492;28;20062;-66
2023/05/25 09:42:24;;;;;;;1999.90;999.90;;;;;;;;;;5013675;28;20029;-66
2023/05/25 09:44:50;;;;;;;1999.90;999.90;;;;;;;;;;5013488;28;20054;-65
2023/05/25 09:47:17;;;;;;;1999.90;999.90;;;;;;;;;;5013915;28;20375;-66
2023/05/25 09:49:46;;;;;;;1999.90;999.90;;;;;;;;;;5013547;28;20070;-65
2023/05/25 09:52:12;;;;;;;1999.90;999.90;;;;;;;;;;5013391;28;20014;-66
2023/05/25 09:54:38;;;;;;;1999.90;999.90;;;;;;;;;;5013819;28;20112;-66
2023/05/25 09:57:05;;;;;;;1999.90;999.90;;;;;;;;;;5013636;28;20522;-66
2023/05/25 09:59:31;;;;;;;1999.90;999.90;;;;;;;;;;5012870;28;20033;-66
2023/05/25 10:01:58;;;;;;;1999.90;999.90;;;;;;;;;;5011134;28;20033;-67
2023/05/25 10:04:24;;;;;;;1999.90;999.90;;;;;;;;;;5011048;28;20068;-66
2023/05/25 10:06:51;;;;;;;1999.90;999.90;;;;;;;;;;5007804;28;20065;-66
2023/05/25 10:09:20;;;;;;;1999.90;999.90;;;;;;;;;;5011797;28;20116;-63
2023/05/25 10:11:46;;;;;;;1999.90;999.90;;;;;;;;;;5012727;28;20037;-64
2023/05/25 10:14:14;;;;;;;1999.90;999.90;;;;;;;;;;5012890;28;20025;-64
2023/05/25 10:16:41;;;;;;;1999.90;999.90;;;;;;;;;;5012791;28;20424;-65
2023/05/25 10:19:31;;;;;;;1999.90;999.90;;;;;;;;;;5012912;28;20135;-64
2023/05/25 10:22:06;;;;;;;1999.90;999.90;;;;;;;;;;5010302;28;20049;-66
2023/05/25 10:24:43;;;;;;;1999.90;999.90;;;;;;;;;;5011021;28;20034;-65
2023/05/25 10:27:12;;;;;;;1999.90;999.90;;;;;;;;;;5010478;28;20458;-65
2023/05/25 10:29:39;;;;;;;1999.90;999.90;;;;;;;;;;5010909;28;20045;-65
2023/05/25 10:32:06;;;;;;;1999.90;999.90;;;;;;;;;;5010688;28;20033;-66
2023/05/25 10:34:32;;;;;;;1999.90;999.90;;;;;;;;;;5010861;28;20478;-64
2023/05/25 10:36:58;;;;;;;1999.90;999.90;;;;;;;;;;5010208;28;20034;-66
2023/05/25 10:39:24;;;;;;;1999.90;999.90;;;;;;;;;;5009807;28;20046;-66
2023/05/25 10:41:52;;;;;;;1999.90;999.90;;;;;;;;;;5009976;28;20164;-65
2023/05/25 10:44:19;;;;;;;1999.90;999.90;;;;;;;;;;5010310;28;20068;-65
2023/05/25 10:46:45;;;;;;;1999.90;999.90;;;;;;;;;;5010435;28;20149;-65
2023/05/25 10:49:11;;;;;;;1999.90;999.90;;;;;;;;;;5010108;28;20034;-65
2023/05/25 10:51:38;;;;;;;1999.90;999.90;;;;;;;;;;5010047;28;20054;-65
2023/05/25 10:54:04;;;;;;;1999.90;999.90;;;;;;;;;;5010022;28;20026;-65
2023/05/25 10:56:30;;;;;;;1999.90;999.90;;;;;;;;;;5010260;28;20037;-65
2023/05/25 10:58:56;;;;;;;1999.90;999.90;;;;;;;;;;5011423;28;20037;-65
2023/05/25 11:01:22;;;;;;;1999.90;999.90;;;;;;;;;;5012713;28;20363;-66
2023/05/25 11:03:57;;;;;;;1999.90;999.90;;;;;;;;;;5012447;28;20545;-66
2023/05/25 11:06:39;;;;;;;1999.90;999.90;;;;;;;;;;5012116;28;20037;-67
2023/05/25 11:09:05;;;;;;;1999.90;999.90;;;;;;;;;;5011966;28;20026;-66
2023/05/25 11:11:47;;;;;;;1999.90;999.90;;;;;;;;;;5012176;28;20109;-66
2023/05/25 11:14:23;;;;;;;1999.90;999.90;;;;;;;;;;5011994;28;20033;-65
2023/05/25 11:17:06;;;;;;;1999.90;999.90;;;;;;;;;;5011894;28;20021;-66
2023/05/25 11:19:42;;;;;;;1999.90;999.90;;;;;;;;;;5011790;28;20026;-66
2023/05/25 11:22:19;;;;;;;1999.90;999.90;;;;;;;;;;5011740;28;20076;-66
2023/05/25 11:24:46;;;;;;;1999.90;999.90;;;;;;;;;;5012010;28;20475;-66
2023/05/25 11:27:12;;;;;;;1999.90;999.90;;;;;;;;;;5011678;28;20034;-65
2023/05/25 11:29:38;;;;;;;1999.90;999.90;;;;;;;;;;5011599;28;20030;-65
2023/05/25 11:32:05;;;;;;;1999.90;999.90;;;;;;;;;;5011040;28;20485;-65
2023/05/25 11:34:31;;;;;;;1999.90;999.90;;;;;;;;;;5011090;28;20115;-64
2023/05/25 11:37:02;;;;;;;1999.90;999.90;;;;;;;;;;5010897;28;20478;-65
2023/05/25 11:39:29;;;;;;;1999.90;999.90;;;;;;;;;;5006147;28;20125;-65
2023/05/25 11:41:56;;;;;;;1999.90;999.90;;;;;;;;;;5009730;28;20375;-67
2023/05/25 11:44:27;;;;;;;1999.90;999.90;;;;;;;;;;5010272;28;20024;-66
2023/05/25 11:46:56;;;;;;;1999.90;999.90;;;;;;;;;;5010854;28;20116;-66
2023/05/25 11:49:23;;;;;;;1999.90;999.90;;;;;;;;;;5011367;28;20025;-65
2023/05/25 11:51:49;;;;;;;1999.90;999.90;;;;;;;;;;5011162;28;20036;-65
2023/05/25 11:54:22;;;;;;;1999.90;999.90;;;;;;;;;;5011378;28;20029;-63
2023/05/25 11:56:48;;;;;;;1999.90;999.90;;;;;;;;;;5011456;28;20030;-64
2023/05/25 11:59:15;;;;;;;1999.90;999.90;;;;;;;;;;5011411;28;20108;-63
2023/05/25 12:01:41;;;;;;;1999.90;999.90;;;;;;;;;;5011690;28;20026;-65
2023/05/25 12:04:10;;;;;;;1999.90;999.90;;;;;;;;;;5011816;28;20505;-65
2023/05/25 12:06:36;;;;;;;1999.90;999.90;;;;;;;;;;5011097;28;20036;-64
2023/05/25 12:09:07;;;;;;;1999.90;999.90;;;;;;;;;;5010768;28;20095;-64
2023/05/25 12:11:34;;;;;;;1999.90;999.90;;;;;;;;;;5011102;28;20033;-64
2023/05/25 12:14:01;;;;;;;1999.90;999.90;;;;;;;;;;5010799;28;20080;-65
2023/05/25 12:16:27;;;;;;;1999.90;999.90;;;;;;;;;;5010974;28;20038;-66
2023/05/25 12:18:53;;;;;;;1999.90;999.90;;;;;;;;;;5011169;28;20026;-65
2023/05/25 12:21:20;;;;;;;1999.90;999.90;;;;;;;;;;5010430;28;20025;-66
2023/05/25 12:23:46;;;;;;;1999.90;999.90;;;;;;;;;;5010775;28;20030;-66
2023/05/25 12:26:13;;;;;;;1999.90;999.90;;;;;;;;;;5010785;28;20078;-63
2023/05/25 12:28:40;;;;;;;1999.90;999.90;;;;;;;;;;5010421;28;20030;-64
2023/05/25 12:31:21;;;;;;;1999.90;999.90;;;;;;;;;;5011353;28;20030;-66
2023/05/25 12:34:02;;;;;;;1999.90;999.90;;;;;;;;;;5011016;28;20470;-66
2023/05/25 12:36:37;;;;;;;1999.90;999.90;;;;;;;;;;5010768;28;20018;-65
2023/05/25 12:39:05;;;;;;;1999.90;999.90;;;;;;;;;;5010861;28;20552;-66
2023/05/25 12:41:31;;;;;;;1999.90;999.90;;;;;;;;;;5010389;28;20052;-64
2023/05/25 12:43:58;;;;;;;1999.90;999.90;;;;;;;;;;5010353;28;20421;-65
2023/05/25 12:46:25;;;;;;;1999.90;999.90;;;;;;;;;;5009232;28;20030;-65
2023/05/25 12:48:51;;;;;;;1999.90;999.90;;;;;;;;;;5010395;28;20045;-66
2023/05/25 12:51:17;;;;;;;1999.90;999.90;;;;;;;;;;5011837;28;20053;-65
2023/05/25 12:53:52;;;;;;;1999.90;999.90;;;;;;;;;;5014709;28;20026;-65
2023/05/25 12:56:19;;;;;;;1999.90;999.90;;;;;;;;;;5014286;28;20158;-64
2023/05/25 12:58:45;;;;;;;1999.90;999.90;;;;;;;;;;5014347;28;20092;-65
2023/05/25 13:01:11;;;;;;;1999.90;999.90;;;;;;;;;;5014344;28;20022;-66
2023/05/25 13:03:37;;;;;;;1999.90;999.90;;;;;;;;;;5014185;28;20052;-68
2023/05/25 13:06:03;;;;;;;1999.90;999.90;;;;;;;;;;5014404;28;20026;-68
2023/05/25 13:08:29;;;;;;;1999.90;999.90;;;;;;;;;;5013682;28;20037;-66
2023/05/25 13:10:56;;;;;;;1999.90;999.90;;;;;;;;;;5013935;28;20053;-67
2023/05/25 13:13:22;;;;;;;1999.90;999.90;;;;;;;;;;5014464;28;20032;-66
2023/05/25 13:15:48;;;;;;;1999.90;999.90;;;;;;;;;;5014062;28;20398;-68
2023/05/25 13:18:14;;;;;;;1999.90;999.90;;;;;;;;;;5014305;28;20030;-68
2023/05/25 13:20:40;;;;;;;1999.90;999.90;;;;;;;;;;5014370;28;20474;-68
2023/05/25 13:23:06;;;;;;;1999.90;999.90;;;;;;;;;;5013924;28;20406;-68
2023/05/25 13:25:32;;;;;;;1999.90;999.90;;;;;;;;;;5014658;28;20918;-67
2023/05/25 13:27:59;;;;;;;1999.90;999.90;;;;;;;;;;5014087;28;20034;-67
2023/05/25 13:30:25;;;;;;;1999.90;999.90;;;;;;;;;;5012924;28;20409;-68
2023/05/25 13:32:52;;;;;;;1999.90;999.90;;;;;;;;;;5014224;28;20018;-66
2023/05/25 13:35:22;;;;;;;1999.90;999.90;;;;;;;;;;5014059;28;20030;-68
2023/05/25 13:37:49;;;;;;;1999.90;999.90;;;;;;;;;;5013861;28;20105;-67
2023/05/25 13:40:15;;;;;;;1999.90;999.90;;;;;;;;;;5012413;28;20050;-67
2023/05/25 13:42:41;;;;;;;1999.90;999.90;;;;;;;;;;5013909;28;20489;-67
2023/05/25 13:45:08;;;;;;;1999.90;999.90;;;;;;;;;;5014016;28;20370;-68
2023/05/25 13:47:34;;;;;;;1999.90;999.90;;;;;;;;;;5013591;28;20438;-67
2023/05/25 13:50:00;;;;;;;1999.90;999.90;;;;;;;;;;5013798;28;20037;-69
2023/05/25 13:52:26;;;;;;;1999.90;999.90;;;;;;;;;;5013841;28;20026;-67
2023/05/25 13:54:52;;;;;;;1999.90;999.90;;;;;;;;;;5013661;28;20052;-68
2023/05/25 13:57:20;;;;;;;1999.90;999.90;;;;;;;;;;5012493;28;20034;-67
2023/05/25 13:59:46;;;;;;;1999.90;999.90;;;;;;;;;;5013698;28;20029;-67
2023/05/25 14:02:12;;;;;;;1999.90;999.90;;;;;;;;;;5013322;28;20025;-67
2023/05/25 14:04:38;;;;;;;1999.90;999.90;;;;;;;;;;5013249;28;20033;-68
2023/05/25 14:07:04;;;;;;;1999.90;999.90;;;;;;;;;;5013280;28;20018;-67
2023/05/25 14:09:30;;;;;;;1999.90;999.90;;;;;;;;;;5013090;28;20034;-67
2023/05/25 14:11:56;;;;;;;1999.90;999.90;;;;;;;;;;5007401;28;20022;-65
2023/05/25 14:14:22;;;;;;;1999.90;999.90;;;;;;;;;;5012304;28;20593;-65
2023/05/25 14:16:48;;;;;;;1999.90;999.90;;;;;;;;;;5012982;28;20386;-63
2023/05/25 14:19:16;;;;;;;1999.90;999.90;;;;;;;;;;5013470;28;20037;-65
2023/05/25 14:21:42;;;;;;;1999.90;999.90;;;;;;;;;;5013169;28;20025;-67
2023/05/25 14:24:09;;;;;;;1999.90;999.90;;;;;;;;;;5012695;28;20083;-68
2023/05/25 14:26:35;;;;;;;1999.90;999.90;;;;;;;;;;5012574;28;20022;-66
2023/05/25 14:29:01;;;;;;;1999.90;999.90;;;;;;;;;;5012452;28;20101;-68
2023/05/25 14:31:27;;;;;;;1999.90;999.90;;;;;;;;;;5012639;28;20030;-67
2023/05/25 14:33:53;;;;;;;1999.90;999.90;;;;;;;;;;5012373;28;20026;-67
2023/05/25 14:36:19;;;;;;;1999.90;999.90;;;;;;;;;;5012517;28;20109;-68
2023/05/25 14:38:45;;;;;;;1999.90;999.90;;;;;;;;;;5012351;28;20037;-66
2023/05/25 14:41:11;;;;;;;1999.90;999.90;;;;;;;;;;5012283;28;20058;-67
2023/05/25 14:43:37;;;;;;;1999.90;999.90;;;;;;;;;;5012804;28;20052;-68
2023/05/25 14:46:05;;;;;;;1999.90;999.90;;;;;;;;;;5011923;28;20683;-65
2023/05/25 14:48:31;;;;;;;1999.90;999.90;;;;;;;;;;5012455;28;20022;-66
2023/05/25 14:50:58;;;;;;;1999.90;999.90;;;;;;;;;;5011846;28;20072;-66
2023/05/25 14:53:25;;;;;;;1999.90;999.90;;;;;;;;;;5012114;28;20018;-66
2023/05/25 14:55:51;;;;;;;1999.90;999.90;;;;;;;;;;5011126;28;20390;-68
2023/05/25 14:58:17;;;;;;;1999.90;999.90;;;;;;;;;;5011357;28;20490;-67
2023/05/25 15:00:43;;;;;;;1999.90;999.90;;;;;;;;;;5012313;28;20028;-65
2023/05/25 15:03:09;;;;;;;1999.90;999.90;;;;;;;;;;5012318;28;20029;-69
2023/05/25 15:05:35;;;;;;;1999.90;999.90;;;;;;;;;;5011948;28;20026;-69
2023/05/25 15:08:01;;;;;;;1999.90;999.90;;;;;;;;;;5011816;28;20045;-70
2023/05/25 15:10:28;;;;;;;1999.90;999.90;;;;;;;;;;5011826;28;20053;-70
2023/05/25 15:12:54;;;;;;;1999.90;999.90;;;;;;;;;;5011357;28;20026;-70
2023/05/25 15:15:20;;;;;;;1999.90;999.90;;;;;;;;;;5010891;28;20513;-70
2023/05/25 15:17:46;;;;;;;1999.90;999.90;;;;;;;;;;5011824;28;20030;-69
2023/05/25 15:20:12;;;;;;;1999.90;999.90;;;;;;;;;;5011737;28;20100;-68
2023/05/25 15:22:38;;;;;;;1999.90;999.90;;;;;;;;;;5011492;28;20029;-68
2023/05/25 15:25:04;;;;;;;1999.90;999.90;;;;;;;;;;5010732;28;20076;-66
2023/05/25 15:27:31;;;;;;;1999.90;999.90;;;;;;;;;;5010114;28;20049;-67
2023/05/25 15:29:57;;;;;;;1999.90;999.90;;;;;;;;;;5011368;28;20084;-62
2023/05/25 15:32:23;;;;;;;1999.90;999.90;;;;;;;;;;5011496;28;20080;-70
2023/05/25 15:34:49;;;;;;;1999.90;999.90;;;;;;;;;;5011329;28;20026;-67
2023/05/25 15:37:15;;;;;;;1999.90;999.90;;;;;;;;;;5011489;28;20076;-69
2023/05/25 15:39:41;;;;;;;1999.90;999.90;;;;;;;;;;5011355;28;20053;-68
2023/05/25 15:42:07;;;;;;;1999.90;999.90;;;;;;;;;;5011900;28;20500;-66
2023/05/25 15:44:33;;;;;;;1999.90;999.90;;;;;;;;;;5011815;28;20068;-72
2023/05/25 15:46:59;;;;;;;1999.90;999.90;;;;;;;;;;5011696;28;20061;-68
2023/05/25 15:49:25;;;;;;;1999.90;999.90;;;;;;;;;;5011796;28;20105;-71
2023/05/25 15:51:52;;;;;;;1999.90;999.90;;;;;;;;;;5011758;28;20037;-66
2023/05/25 15:54:18;;;;;;;1999.90;999.90;;;;;;;;;;5011901;28;20042;-64
2023/05/25 15:56:44;;;;;;;1999.90;999.90;;;;;;;;;;5011417;28;20473;-65
2023/05/25 15:59:14;;;;;;;1999.90;999.90;;;;;;;;;;5011584;28;20512;-62
2023/05/25 16:01:40;;;;;;;1999.90;999.90;;;;;;;;;;5011360;28;20469;-72
2023/05/25 16:04:06;;;;;;;1999.90;999.90;;;;;;;;;;5011255;28;20109;-71
2023/05/25 16:06:32;;;;;;;1999.90;999.90;;;;;;;;;;5010092;28;20096;-70
2023/05/25 16:08:58;;;;;;;1999.90;999.90;;;;;;;;;;5009806;28;20466;-71
2023/05/25 16:11:28;;;;;;;1999.90;999.90;;;;;;;;;;5010441;28;20473;-70
2023/05/25 16:13:54;;;;;;;1999.90;999.90;;;;;;;;;;5011261;28;20045;-70
2023/05/25 16:16:20;;;;;;;1999.90;999.90;;;;;;;;;;5010886;28;20374;-70
2023/05/25 16:18:47;;;;;;;1999.90;999.90;;;;;;;;;;5011236;28;20030;-66
2023/05/25 16:21:13;;;;;;;1999.90;999.90;;;;;;;;;;5010783;28;20030;-61
2023/05/25 16:23:39;;;;;;;1999.90;999.90;;;;;;;;;;5003848;28;20034;-70
2023/05/25 16:26:08;;;;;;;1999.90;999.90;;;;;;;;;;4991212;28;20049;-68
2023/05/25 16:28:35;;;;;;;1999.90;999.90;;;;;;;;;;4991366;28;20475;-70
2023/05/25 16:31:01;;;;;;;1999.90;999.90;;;;;;;;;;4991321;28;20106;-70
2023/05/25 16:33:27;;;;;;;1999.90;999.90;;;;;;;;;;4991369;28;20026;-70
2023/05/25 16:35:53;;;;;;;1999.90;999.90;;;;;;;;;;4991499;28;20592;-69
2023/05/25 16:38:19;;;;;;;1999.90;999.90;;;;;;;;;;4990900;28;20033;-64
2023/05/25 16:40:45;;;;;;;1999.90;999.90;;;;;;;;;;4990887;28;20077;-66
2023/05/25 16:43:11;;;;;;;1999.90;999.90;;;;;;;;;;4991164;28;20026;-69
2023/05/25 16:45:37;;;;;;;1999.90;999.90;;;;;;;;;;4991340;28;20375;-69
2023/05/25 16:48:03;;;;;;;1999.90;999.90;;;;;;;;;;4991535;28;20097;-71
2023/05/25 16:50:29;;;;;;;1999.90;999.90;;;;;;;;;;4993269;28;20029;-71
2023/05/25 16:52:55;;;;;;;1999.90;999.90;;;;;;;;;;5000781;28;20548;-72
2023/05/25 16:55:22;;;;;;;1999.90;999.90;;;;;;;;;;4999179;28;20032;-63
2023/05/25 16:57:48;;;;;;;1999.90;999.90;;;;;;;;;;5009508;28;20022;-67
2023/05/25 17:00:14;;;;;;;1999.90;999.90;;;;;;;;;;5009670;28;20057;-70
2023/05/25 17:02:40;;;;;;;1999.90;999.90;;;;;;;;;;5009974;28;20026;-70
2023/05/25 17:05:07;;;;;;;1999.90;999.90;;;;;;;;;;5010146;28;20486;-70
2023/05/25 17:07:33;;;;;;;1999.90;999.90;;;;;;;;;;5009762;28;20074;-64
2023/05/25 17:09:59;;;;;;;1999.90;999.90;;;;;;;;;;5010299;28;20042;-61
2023/05/25 17:12:25;;;;;;;1999.90;999.90;;;;;;;;;;5009946;28;20099;-68
2023/05/25 17:14:52;;;;;;;1999.90;999.90;;;;;;;;;;5009533;28;20449;-69
2023/05/25 17:17:18;;;;;;;1999.90;999.90;;;;;;;;;;5010474;28;20037;-63
2023/05/25 17:19:44;;;;;;;1999.90;999.90;;;;;;;;;;5009618;28;20068;-62
2023/05/25 17:22:10;;;;;;;1999.90;999.90;;;;;;;;;;5009877;28;20430;-63
2023/05/25 17:24:36;;;;;;;1999.90;999.90;;;;;;;;;;4993415;28;20034;-63
2023/05/25 17:27:02;;;;;;;1999.90;999.90;;;;;;;;;;4990472;28;20026;-62
2023/05/25 17:29:28;;;;;;;1999.90;999.90;;;;;;;;;;4990993;28;20030;-63
2023/05/25 17:31:54;;;;;;;1999.90;999.90;;;;;;;;;;5002507;28;20026;-67
2023/05/25 17:34:20;;;;;;;1999.90;999.90;;;;;;;;;;5010182;28;20485;-61
2023/05/25 17:36:47;;;;;;;1999.90;999.90;;;;;;;;;;5010389;28;20105;-62
2023/05/25 17:39:13;;;;;;;1999.90;999.90;;;;;;;;;;5013676;28;20477;-62
2023/05/25 17:41:39;;;;;;;1999.90;999.90;;;;;;;;;;5013717;28;20066;-68
2023/05/25 17:44:05;;;;;;;1999.90;999.90;;;;;;;;;;5013816;28;20030;-64
2023/05/25 17:46:31;;;;;;;1999.90;999.90;;;;;;;;;;5013734;28;20764;-68
2023/05/25 17:48:57;;;;;;;1999.90;999.90;;;;;;;;;;5005819;28;20026;-66
2023/05/25 17:51:23;;;;;;;1999.90;999.90;;;;;;;;;;5012941;28;20504;-65
2023/05/25 17:53:49;;;;;;;1999.90;999.90;;;;;;;;;;5012660;28;20030;-67
2023/05/25 17:56:15;;;;;;;1999.90;999.90;;;;;;;;;;5012571;28;20026;-67
2023/05/25 17:58:46;;;;;;;1999.90;999.90;;;;;;;;;;5007476;28;20054;-68
2023/05/25 18:01:12;;;;;;;1999.90;999.90;;;;;;;;;;5004702;28;20076;-64
2023/05/25 18:03:38;;;;;;;1999.90;999.90;;;;;;;;;;5010344;28;20095;-65
2023/05/25 18:06:04;;;;;;;1999.90;999.90;;;;;;;;;;5008462;28;20473;-66
2023/05/25 18:08:30;;;;;;;1999.90;999.90;;;;;;;;;;5012162;28;20034;-63
2023/05/25 18:10:56;;;;;;;1999.90;999.90;;;;;;;;;;5011090;28;20038;-67
2023/05/25 18:13:22;;;;;;;1999.90;999.90;;;;;;;;;;5012628;28;20435;-67
2023/05/25 18:15:48;;;;;;;1999.90;999.90;;;;;;;;;;5012344;28;20065;-67
2023/05/25 18:18:15;;;;;;;1999.90;999.90;;;;;;;;;;5012448;28;20121;-67
2023/05/25 18:20:41;;;;;;;1999.90;999.90;;;;;;;;;;5013036;28;20084;-68